createdAt,value
2022-10-13T00:01:08.322Z,8.9
2022-10-13T00:03:10.313Z,9
2022-10-13T00:05:12.407Z,9
2022-10-13T00:07:17.426Z,9.1
2022-10-13T00:09:19.468Z,9
2022-10-13T00:11:21.468Z,9
2022-10-13T00:13:23.508Z,9.1
2022-10-13T00:15:25.563Z,9.1
2022-10-13T00:17:27.599Z,9.1
2022-10-13T00:19:29.615Z,9.1
2022-10-13T00:21:34.711Z,9.2
2022-10-13T00:23:36.732Z,9.2
2022-10-13T00:25:38.760Z,9.2
2022-10-13T00:27:40.796Z,9.2
2022-10-13T00:29:42.871Z,9.2
2022-10-13T00:31:44.913Z,9.3
2022-10-13T00:33:46.930Z,9.3
2022-10-13T00:35:52.012Z,9.3
2022-10-13T00:37:54.031Z,9.3
2022-10-13T00:39:56.076Z,9.3
2022-10-13T00:40:58.617Z,9.4
2022-10-13T00:43:00.674Z,9.3
2022-10-13T00:45:02.710Z,9.3
2022-10-13T00:47:04.740Z,9.3
2022-10-13T00:49:10.302Z,9.3
2022-10-13T00:51:11.832Z,9.3
2022-10-13T00:53:13.863Z,9.3
2022-10-13T00:59:20.004Z,9.3
2022-10-13T01:01:22.035Z,9.3
2022-10-13T01:03:27.117Z,9.4
2022-10-13T01:07:31.416Z,9.4
2022-10-13T01:09:33.264Z,9.4
2022-10-13T01:11:35.272Z,9.4
2022-10-13T01:13:37.328Z,9.4
2022-10-13T01:17:44.417Z,9.6
2022-10-13T01:19:46.458Z,9.6
2022-10-13T01:23:50.523Z,9.6
2022-10-13T01:25:52.553Z,9.7
2022-10-13T01:27:54.574Z,9.6
2022-10-13T01:29:56.618Z,9.7
2022-10-13T01:32:01.702Z,9.7
2022-10-13T01:34:03.724Z,9.7
2022-10-13T01:36:05.756Z,9.7
2022-10-13T01:39:10.353Z,9.8
2022-10-13T01:41:12.359Z,9.8
2022-10-13T01:43:14.406Z,9.8
2022-10-13T01:47:21.519Z,9.9
2022-10-13T01:49:23.559Z,9.9
2022-10-13T01:51:25.605Z,9.9
2022-10-13T01:53:27.636Z,9.9
2022-10-13T02:01:38.811Z,10
2022-10-13T02:03:40.844Z,10
2022-10-13T02:05:42.859Z,10.1
2022-10-13T02:09:46.950Z,10.1
2022-10-13T02:15:57.603Z,10.2
2022-10-13T02:17:59.632Z,10.2
2022-10-13T02:20:01.693Z,10.1
2022-10-13T02:22:03.708Z,10.2
2022-10-13T02:24:05.743Z,10.2
2022-10-13T02:26:07.766Z,10.2
2022-10-13T02:28:12.918Z,10.3
2022-10-13T02:30:14.873Z,10.3
2022-10-13T02:32:17.329Z,10.3
2022-10-13T02:35:21.515Z,10.3
2022-10-13T02:37:23.546Z,10.2
2022-10-13T02:39:25.595Z,10.2
2022-10-13T02:41:30.657Z,10.2
2022-10-13T02:43:32.719Z,10.2
2022-10-13T02:45:34.729Z,10.3
2022-10-13T02:47:36.779Z,10.4
2022-10-13T02:49:38.814Z,10.4
2022-10-13T02:51:40.842Z,10.4
2022-10-13T02:55:47.956Z,10.6
2022-10-13T02:57:49.987Z,10.7
2022-10-13T02:59:52.018Z,10.7
2022-10-13T03:03:56.087Z,10.8
2022-10-13T03:05:58.125Z,10.9
2022-10-13T03:08:00.158Z,11
2022-10-13T03:10:05.231Z,11.1
2022-10-13T03:12:07.297Z,11.1
2022-10-13T03:14:09.333Z,11.1
2022-10-13T03:16:11.355Z,11.2
2022-10-13T03:18:13.400Z,11.1
2022-10-13T03:20:15.427Z,11
2022-10-13T03:22:17.821Z,10.9
2022-10-13T03:24:22.564Z,10.8
2022-10-13T03:26:24.576Z,10.9
2022-10-13T03:28:26.694Z,10.8
2022-10-13T03:30:49.349Z,10.8
2022-10-13T03:32:51.405Z,10.8
2022-10-13T03:34:53.413Z,10.8
2022-10-13T03:36:58.546Z,10.8
2022-10-13T03:39:00.548Z,10.8
2022-10-13T03:41:02.592Z,10.8
2022-10-13T03:43:04.632Z,10.9
2022-10-13T03:45:06.793Z,10.9
2022-10-13T03:47:08.669Z,10.9
2022-10-13T03:49:10.723Z,10.9
2022-10-13T03:51:15.843Z,10.9
2022-10-13T03:53:17.844Z,11
2022-10-13T03:55:19.904Z,11.1
2022-10-13T03:57:21.909Z,11.2
2022-10-13T03:59:23.950Z,11.3
2022-10-13T04:01:26.033Z,11.2
2022-10-13T04:03:28.013Z,11.3
2022-10-13T04:05:33.129Z,11.4
2022-10-13T04:09:37.182Z,11.5
2022-10-13T04:11:39.184Z,11.5
2022-10-13T04:13:41.230Z,11.5
2022-10-13T04:17:45.309Z,11.6
2022-10-13T04:19:50.427Z,11.7
2022-10-13T04:21:52.468Z,11.7
2022-10-13T04:23:54.476Z,11.7
2022-10-13T04:24:57.025Z,11.7
2022-10-13T04:26:59.048Z,11.7
2022-10-13T04:29:01.109Z,11.7
2022-10-13T04:31:03.130Z,11.7
2022-10-13T04:33:08.231Z,11.7
2022-10-13T04:35:10.283Z,11.7
2022-10-13T04:37:12.277Z,11.8
2022-10-13T04:39:14.318Z,11.8
2022-10-13T04:41:16.349Z,11.8
2022-10-13T04:43:18.395Z,11.7
2022-10-13T04:45:20.406Z,11.7
2022-10-13T04:47:25.535Z,11.8
2022-10-13T04:49:27.577Z,11.8
2022-10-13T04:51:29.602Z,11.8
2022-10-13T04:53:31.633Z,11.8
2022-10-13T04:55:33.663Z,11.8
2022-10-13T04:57:35.697Z,11.7
2022-10-13T04:59:37.737Z,11.6
2022-10-13T05:01:42.853Z,11.6
2022-10-13T05:03:44.886Z,11.5
2022-10-13T05:05:46.915Z,11.5
2022-10-13T05:07:48.938Z,11.5
2022-10-13T05:09:50.990Z,11.4
2022-10-13T05:11:53.007Z,11.3
2022-10-13T05:13:55.053Z,11.3
2022-10-13T05:16:00.159Z,11.4
2022-10-13T05:18:02.247Z,11.3
2022-10-13T05:20:04.226Z,11.5
2022-10-13T05:21:06.759Z,11.5
2022-10-13T05:23:08.821Z,11.5
2022-10-13T05:25:10.871Z,11.5
2022-10-13T05:27:12.901Z,11.5
2022-10-13T05:29:17.977Z,11.4
2022-10-13T05:31:20.024Z,11.4
2022-10-13T05:33:22.044Z,11.4
2022-10-13T05:35:24.062Z,11.3
2022-10-13T05:37:26.127Z,11.3
2022-10-13T05:39:28.148Z,11.2
2022-10-13T05:41:30.181Z,11.3
2022-10-13T05:43:35.274Z,11.3
2022-10-13T05:45:37.289Z,11.2
2022-10-13T05:47:39.326Z,11.2
2022-10-13T05:49:41.362Z,11.2
2022-10-13T05:51:43.399Z,11.3
2022-10-13T05:53:49.572Z,11.3
2022-10-13T05:55:47.454Z,11.4
2022-10-13T05:57:52.563Z,11.5
2022-10-13T05:59:54.593Z,11.5
2022-10-13T06:01:56.663Z,11.7
2022-10-13T06:03:58.649Z,11.7
2022-10-13T06:06:00.692Z,11.8
2022-10-13T06:08:02.716Z,11.8
2022-10-13T06:10:04.750Z,11.9
2022-10-13T06:12:09.838Z,11.9
2022-10-13T06:14:11.871Z,11.9
2022-10-13T06:16:13.896Z,12
2022-10-13T06:17:16.449Z,12
2022-10-13T06:19:18.470Z,12
2022-10-13T06:21:20.530Z,12
2022-10-13T06:23:22.549Z,12
2022-10-13T06:25:27.637Z,12
2022-10-13T06:27:29.685Z,12
2022-10-13T06:29:31.743Z,12
2022-10-13T06:35:37.838Z,12
2022-10-13T06:37:39.848Z,12.1
2022-10-13T06:39:44.954Z,12.1
2022-10-13T06:41:46.986Z,12.1
2022-10-13T06:45:51.064Z,12.1
2022-10-13T06:47:53.077Z,12.1
2022-10-13T06:49:55.101Z,12.1
2022-10-13T06:51:57.139Z,12.1
2022-10-13T06:54:02.261Z,12.2
2022-10-13T06:56:04.300Z,12.2
2022-10-13T06:58:06.323Z,12.2
2022-10-13T07:00:08.349Z,12.2
2022-10-13T07:02:10.394Z,12.3
2022-10-13T07:04:12.416Z,12.3
2022-10-13T07:06:14.457Z,12.3
2022-10-13T07:08:19.557Z,12.4
2022-10-13T07:10:21.574Z,12.4
2022-10-13T07:12:23.627Z,12.4
2022-10-13T07:14:46.533Z,12.4
2022-10-13T07:16:48.606Z,12.4
2022-10-13T07:18:50.639Z,12.4
2022-10-13T07:20:55.740Z,12.4
2022-10-13T07:22:57.771Z,12.4
2022-10-13T07:24:59.783Z,12.4
2022-10-13T07:27:07.474Z,12.5
2022-10-13T07:29:03.859Z,12.5
2022-10-13T07:31:05.883Z,12.6
2022-10-13T07:33:07.911Z,12.6
2022-10-13T07:39:17.079Z,12.8
2022-10-13T07:41:19.100Z,12.8
2022-10-13T07:43:21.127Z,12.8
2022-10-13T07:45:23.155Z,12.9
2022-10-13T07:49:30.304Z,12.9
2022-10-13T07:51:32.334Z,12.9
2022-10-13T07:53:34.346Z,12.9
2022-10-13T07:55:36.376Z,12.9
2022-10-13T07:57:38.409Z,12.9
2022-10-13T07:59:40.436Z,12.9
2022-10-13T08:01:42.531Z,12.9
2022-10-13T08:05:51.115Z,12.9
2022-10-13T08:08:55.721Z,12.8
2022-10-13T08:10:57.712Z,12.8
2022-10-13T08:12:59.751Z,12.8
2022-10-13T08:15:05.285Z,12.9
2022-10-13T08:17:06.874Z,12.9
2022-10-13T08:19:08.909Z,12.9
2022-10-13T08:21:39.333Z,12.9
2022-10-13T08:23:12.955Z,12.9
2022-10-13T08:25:14.999Z,12.9
2022-10-13T08:27:17.466Z,12.9
2022-10-13T08:29:23.527Z,12.9
2022-10-13T08:31:24.366Z,12.9
2022-10-13T08:33:26.188Z,12.9
2022-10-13T08:35:31.308Z,12.9
2022-10-13T08:37:30.243Z,12.9
2022-10-13T08:41:34.307Z,12.9
2022-10-13T08:43:37.609Z,12.8
2022-10-13T08:51:47.536Z,13
2022-10-13T08:53:49.582Z,12.9
2022-10-13T08:55:51.611Z,12.9
2022-10-13T08:57:53.642Z,13
2022-10-13T08:59:58.728Z,12.9
2022-10-13T09:02:00.804Z,12.9
2022-10-13T09:04:02.799Z,13
2022-10-13T09:05:05.338Z,13
2022-10-13T09:07:07.375Z,13
2022-10-13T09:09:09.396Z,13
2022-10-13T09:11:11.427Z,13
2022-10-13T09:13:16.548Z,13
2022-10-13T09:15:18.546Z,13
2022-10-13T09:17:20.575Z,13
2022-10-13T09:19:22.609Z,13
2022-10-13T09:21:24.656Z,13
2022-10-13T09:23:26.671Z,13.1
2022-10-13T09:25:28.689Z,13.1
2022-10-13T09:27:33.774Z,13.2
2022-10-13T09:29:35.816Z,13.2
2022-10-13T09:31:37.855Z,13.3
2022-10-13T09:33:39.865Z,13.4
2022-10-13T09:35:41.897Z,13.6
2022-10-13T09:37:43.917Z,13.7
2022-10-13T09:39:45.937Z,13.8
2022-10-13T09:41:51.036Z,13.8
2022-10-13T09:43:53.070Z,13.9
2022-10-13T09:45:55.098Z,13.9
2022-10-13T09:52:01.191Z,14.3
2022-10-13T09:54:03.202Z,14.4
2022-10-13T09:58:10.330Z,14.7
2022-10-13T10:00:12.352Z,14.8
2022-10-13T10:01:14.898Z,14.9
2022-10-13T10:03:16.912Z,14.9
2022-10-13T10:05:18.950Z,14.9
2022-10-13T10:07:21.406Z,14.7
2022-10-13T10:09:26.057Z,14.7
2022-10-13T10:11:28.092Z,14.6
2022-10-13T10:13:30.117Z,14.7
2022-10-13T10:15:32.136Z,14.6
2022-10-13T10:17:34.144Z,14.7
2022-10-13T10:19:36.163Z,14.5
2022-10-13T10:21:38.196Z,14.5
2022-10-13T10:23:43.287Z,14.5
2022-10-13T10:25:45.296Z,14.5
2022-10-13T10:27:47.339Z,14.4
2022-10-13T10:29:49.359Z,14.4
2022-10-13T10:31:51.368Z,14.4
2022-10-13T10:33:53.391Z,14.5
2022-10-13T10:35:55.435Z,14.6
2022-10-13T10:38:00.518Z,14.7
2022-10-13T10:40:02.542Z,14.7
2022-10-13T10:42:04.561Z,14.8
2022-10-13T10:44:06.582Z,14.8
2022-10-13T10:46:08.627Z,14.8
2022-10-13T10:48:10.634Z,14.9
2022-10-13T10:50:12.665Z,14.9
2022-10-13T10:52:17.764Z,15.1
2022-10-13T10:54:19.780Z,14.9
2022-10-13T10:56:21.806Z,15
2022-10-13T10:58:38.936Z,15.2
2022-10-13T11:00:40.951Z,15.3
2022-10-13T11:02:42.952Z,15.3
2022-10-13T11:04:48.056Z,15.2
2022-10-13T11:06:50.059Z,15.3
2022-10-13T11:08:52.088Z,15.4
2022-10-13T11:10:55.125Z,15.5
2022-10-13T11:12:56.129Z,15.6
2022-10-13T11:14:58.168Z,15.7
2022-10-13T11:17:00.170Z,15.7
2022-10-13T11:19:05.263Z,15.9
2022-10-13T11:21:07.312Z,15.9
2022-10-13T11:23:09.292Z,15.9
2022-10-13T11:25:11.303Z,15.8
2022-10-13T11:27:13.321Z,15.7
2022-10-13T11:31:17.367Z,15.7
2022-10-13T11:33:22.427Z,15.9
2022-10-13T11:35:24.434Z,15.9
2022-10-13T11:37:26.451Z,16
2022-10-13T11:39:28.647Z,16
2022-10-13T11:41:30.477Z,16.2
2022-10-13T11:43:32.497Z,16.1
2022-10-13T11:45:34.516Z,16
2022-10-13T11:47:39.596Z,15.8
2022-10-13T11:49:41.614Z,15.7
2022-10-13T11:51:43.604Z,15.7
2022-10-13T11:52:46.159Z,15.5
2022-10-13T11:54:48.176Z,15.5
2022-10-13T11:56:50.218Z,15.4
2022-10-13T11:58:52.202Z,15.4
2022-10-13T12:00:57.283Z,15.4
2022-10-13T12:02:59.349Z,15.3
2022-10-13T12:05:01.301Z,15.1
2022-10-13T12:07:03.346Z,15
2022-10-13T12:09:05.334Z,14.9
2022-10-13T12:11:07.337Z,14.9
2022-10-13T12:13:09.366Z,14.9
2022-10-13T12:19:18.471Z,14.7
2022-10-13T12:33:35.686Z,14.7
2022-10-13T12:37:39.709Z,14.6
2022-10-13T12:39:42.681Z,14.5
2022-10-13T12:41:44.660Z,14.6
2022-10-13T12:43:49.776Z,14.6
2022-10-13T12:45:51.782Z,14.5
2022-10-13T12:47:53.807Z,14.4
2022-10-13T12:48:56.344Z,14.4
2022-10-13T12:50:58.379Z,14.4
2022-10-13T12:53:00.371Z,14.3
2022-10-13T12:55:02.730Z,14.2
2022-10-13T12:57:07.799Z,14.3
2022-10-13T12:59:09.836Z,14.3
2022-10-13T13:01:11.923Z,14.3
2022-10-13T13:03:13.875Z,14.1
2022-10-13T13:05:15.912Z,14
2022-10-13T13:07:17.933Z,13.9
2022-10-13T13:09:19.954Z,13.8
2022-10-13T13:11:25.067Z,14
2022-10-13T13:15:29.080Z,14
2022-10-13T13:19:33.137Z,14.3
2022-10-13T13:21:35.179Z,14.2
2022-10-13T13:25:42.278Z,14
2022-10-13T13:31:48.350Z,13.6
2022-10-13T13:33:50.376Z,13.5
2022-10-13T13:35:52.425Z,13.4
2022-10-13T13:37:54.453Z,13.4
2022-10-13T13:39:59.537Z,13.4
2022-10-13T13:42:01.576Z,13.3
2022-10-13T13:44:03.730Z,13.3
2022-10-13T13:45:06.143Z,13.3
2022-10-13T13:47:08.172Z,13.2
2022-10-13T13:49:10.212Z,13.2
2022-10-13T13:51:12.263Z,13.2
2022-10-13T13:53:18.852Z,13.2
2022-10-13T13:55:20.853Z,13.1
2022-10-13T13:57:23.172Z,13
2022-10-13T13:59:24.917Z,13
2022-10-13T14:01:26.955Z,13
2022-10-13T14:03:28.969Z,13
2022-10-13T14:05:30.998Z,13
2022-10-13T14:09:38.115Z,13
2022-10-13T14:11:40.133Z,13
2022-10-13T14:17:46.226Z,13
2022-10-13T14:19:48.260Z,13.1
2022-10-13T14:23:55.387Z,13.2
2022-10-13T14:25:57.418Z,13.2
2022-10-13T14:27:59.470Z,13.3
2022-10-13T14:30:01.732Z,13.3
2022-10-13T14:32:03.520Z,13.5
2022-10-13T14:34:05.559Z,13.6
2022-10-13T14:36:10.648Z,13.6
2022-10-13T14:38:12.663Z,13.6
2022-10-13T14:40:14.686Z,13.5
2022-10-13T14:42:31.367Z,13.4
2022-10-13T14:44:33.397Z,13.4
2022-10-13T14:46:35.410Z,13.4
2022-10-13T14:48:40.510Z,13.4
2022-10-13T14:50:42.534Z,13.4
2022-10-13T14:56:48.656Z,13.4
2022-10-13T14:58:50.669Z,13.5
2022-10-13T15:00:52.699Z,13.6
2022-10-13T15:02:57.783Z,13.8
2022-10-13T15:04:59.804Z,13.9
2022-10-13T15:07:01.852Z,14.1
2022-10-13T15:15:09.939Z,14.2
2022-10-13T15:17:15.052Z,14.4
2022-10-13T15:25:23.143Z,14.1
2022-10-13T15:33:34.312Z,13.8
2022-10-13T15:36:38.907Z,13.7
2022-10-13T15:38:40.897Z,13.7
2022-10-13T15:40:42.933Z,13.7
2022-10-13T15:42:44.954Z,13.7
2022-10-13T15:45:08.937Z,13.7
2022-10-13T15:47:07.008Z,13.7
2022-10-13T15:48:54.343Z,13.7
2022-10-13T15:50:56.138Z,13.6
2022-10-13T15:52:58.204Z,13.6
2022-10-13T15:55:00.179Z,13.6
2022-10-13T15:57:02.223Z,13.5
2022-10-13T15:59:07.289Z,13.5
2022-10-13T16:01:09.438Z,13.5
2022-10-13T16:03:11.358Z,13.5
2022-10-13T16:13:24.603Z,13.3
2022-10-13T16:17:28.624Z,13.3
2022-10-13T16:19:30.649Z,13.3
2022-10-13T16:21:32.693Z,13.2
2022-10-13T16:23:34.726Z,13.2
2022-10-13T16:25:36.747Z,13.2
2022-10-13T16:27:44.237Z,13.2
2022-10-13T16:29:44.695Z,13.2
2022-10-13T16:31:46.728Z,13.2
2022-10-13T16:32:49.268Z,13.2
2022-10-13T16:38:55.339Z,13.1
2022-10-13T16:41:00.508Z,13.1
2022-10-13T16:43:02.496Z,13.1
2022-10-13T16:45:04.520Z,13.1
2022-10-13T16:47:06.544Z,13.1
2022-10-13T16:49:08.561Z,13.1
2022-10-13T16:51:10.622Z,13.1
2022-10-13T16:53:12.640Z,13
2022-10-13T16:55:17.751Z,13
2022-10-13T16:57:20.081Z,13
2022-10-13T16:59:21.797Z,13
2022-10-13T17:01:23.830Z,13
2022-10-13T17:03:25.855Z,12.9
2022-10-13T17:05:27.880Z,12.9
2022-10-13T17:07:29.929Z,12.8
2022-10-13T17:09:35.030Z,12.8
2022-10-13T17:13:39.084Z,12.8
2022-10-13T17:15:41.113Z,12.8
2022-10-13T17:17:43.160Z,12.8
2022-10-13T17:19:45.160Z,12.8
2022-10-13T17:21:47.197Z,12.9
2022-10-13T17:23:52.287Z,12.9
2022-10-13T17:25:54.333Z,12.9
2022-10-13T17:27:56.368Z,12.9
2022-10-13T17:28:58.960Z,12.9
2022-10-13T17:31:00.931Z,12.9
2022-10-13T17:33:04.532Z,12.9
2022-10-13T17:37:10.103Z,13
2022-10-13T17:39:12.112Z,13
2022-10-13T17:41:14.122Z,13
2022-10-13T17:43:16.180Z,13
2022-10-13T17:45:18.191Z,13
2022-10-13T17:47:20.464Z,13
2022-10-13T17:49:22.258Z,13
2022-10-13T17:51:27.368Z,13
2022-10-13T17:53:29.371Z,12.9
2022-10-13T17:55:31.424Z,12.9
2022-10-13T17:57:33.450Z,12.9
2022-10-13T17:59:35.476Z,12.9
2022-10-13T18:01:37.588Z,12.8
2022-10-13T18:03:39.529Z,12.8
2022-10-13T18:05:44.632Z,12.7
2022-10-13T18:07:47.022Z,12.8
2022-10-13T18:09:48.673Z,12.7
2022-10-13T18:11:51.474Z,12.7
2022-10-13T18:13:52.747Z,12.7
2022-10-13T18:15:54.780Z,12.7
2022-10-13T18:17:56.798Z,12.7
2022-10-13T18:20:01.901Z,12.7
2022-10-13T18:22:03.915Z,12.6
2022-10-13T18:24:05.928Z,12.6
2022-10-13T18:26:28.882Z,12.7
2022-10-13T18:28:30.927Z,12.7
2022-10-13T18:30:32.911Z,12.7
2022-10-13T18:32:38.030Z,12.7
2022-10-13T18:34:40.035Z,12.7
2022-10-13T18:36:42.053Z,12.7
2022-10-13T18:42:49.642Z,12.7
2022-10-13T18:48:57.303Z,12.7
2022-10-13T18:50:59.336Z,12.7
2022-10-13T18:53:01.360Z,12.7
2022-10-13T18:55:03.389Z,12.7
2022-10-13T18:57:05.423Z,12.7
2022-10-13T19:01:12.620Z,12.7
2022-10-13T19:03:14.570Z,12.7
2022-10-13T19:05:16.595Z,12.8
2022-10-13T19:07:19.004Z,12.8
2022-10-13T19:09:20.652Z,12.8
2022-10-13T19:11:22.667Z,12.8
2022-10-13T19:13:24.689Z,12.8
2022-10-13T19:15:29.778Z,12.8
2022-10-13T19:19:33.829Z,12.9
2022-10-13T19:20:36.396Z,12.9
2022-10-13T19:22:38.406Z,12.8
2022-10-13T19:24:40.429Z,12.8
2022-10-13T19:26:42.454Z,12.9
2022-10-13T19:28:47.589Z,12.9
2022-10-13T19:30:49.585Z,12.9
2022-10-13T19:32:51.606Z,12.9
2022-10-13T19:34:53.635Z,12.9
2022-10-13T19:36:55.653Z,12.9
2022-10-13T19:38:57.699Z,12.9
2022-10-13T19:40:59.707Z,12.9
2022-10-13T19:45:06.826Z,12.9
2022-10-13T19:47:10.404Z,12.9
2022-10-13T19:49:12.383Z,12.9
2022-10-13T19:55:18.465Z,13
2022-10-13T19:57:23.887Z,13
2022-10-13T20:07:33.669Z,13
2022-10-13T20:09:35.706Z,13
2022-10-13T20:13:42.818Z,13
2022-10-13T20:15:44.830Z,13
2022-10-13T20:24:58.563Z,12.9
2022-10-13T20:27:00.597Z,12.9
2022-10-13T20:35:08.696Z,12.8
2022-10-13T20:37:10.724Z,12.9
2022-10-13T20:43:24.890Z,12.8
2022-10-13T20:45:21.881Z,12.8
2022-10-13T20:47:24.217Z,12.8
2022-10-13T20:49:25.951Z,12.7
2022-10-13T20:51:27.962Z,12.7
2022-10-13T20:53:33.048Z,12.6
2022-10-13T20:55:38.119Z,12.6
2022-10-13T20:57:37.106Z,12.6
2022-10-13T20:59:39.158Z,12.7
2022-10-13T21:01:41.173Z,12.6
2022-10-13T21:05:45.225Z,12.6
2022-10-13T21:07:50.276Z,12.5
2022-10-13T21:09:54.013Z,12.5
2022-10-13T21:11:54.318Z,12.5
2022-10-13T21:14:58.871Z,12.5
2022-10-13T21:17:00.908Z,12.4
2022-10-13T21:19:02.945Z,12.5
2022-10-13T21:21:08.034Z,12.4
2022-10-13T21:23:10.042Z,12.4
2022-10-13T21:25:12.071Z,12.4
2022-10-13T21:27:14.116Z,12.3
2022-10-13T21:29:16.121Z,12.3
2022-10-13T21:31:18.151Z,12.3
2022-10-13T21:33:20.176Z,12.3
2022-10-13T21:35:25.275Z,12.2
2022-10-13T21:37:27.295Z,12.2
2022-10-13T21:39:29.307Z,12.2
2022-10-13T21:41:31.342Z,12.1
2022-10-13T21:45:35.386Z,12.1
2022-10-13T21:47:37.435Z,12.1
2022-10-13T21:49:42.487Z,12
2022-10-13T21:51:44.679Z,12
2022-10-13T21:53:46.544Z,12
2022-10-13T21:55:48.576Z,12
2022-10-13T21:57:50.584Z,12
2022-10-13T22:03:59.731Z,11.8
2022-10-13T22:06:01.768Z,11.8
2022-10-13T22:08:03.806Z,11.7
2022-10-13T22:10:26.574Z,11.6
2022-10-13T22:12:28.624Z,11.6
2022-10-13T22:14:30.634Z,11.5
2022-10-13T22:16:35.733Z,11.4
2022-10-13T22:18:37.782Z,11.4
2022-10-13T22:20:39.824Z,11.3
2022-10-13T22:22:41.820Z,11.3
2022-10-13T22:24:43.878Z,11.3
2022-10-13T22:30:53.017Z,11.1
2022-10-13T22:32:55.033Z,11.1
2022-10-13T22:34:57.071Z,11
2022-10-13T22:36:59.100Z,11.1
2022-10-13T22:39:01.120Z,11.1
2022-10-13T22:41:03.148Z,11
2022-10-13T22:43:05.159Z,11
2022-10-13T22:45:10.256Z,10.9
2022-10-13T22:47:12.272Z,10.9
2022-10-13T22:53:18.339Z,10.9
2022-10-13T22:55:20.361Z,10.9
2022-10-13T22:57:22.874Z,10.9
2022-10-13T22:59:27.472Z,10.9
2022-10-13T23:01:29.499Z,10.9
2022-10-13T23:03:31.593Z,10.8
2022-10-13T23:04:34.039Z,10.8
2022-10-13T23:06:36.068Z,10.8
2022-10-13T23:08:38.099Z,10.8
2022-10-13T23:10:40.121Z,10.8
2022-10-13T23:12:45.203Z,10.8
2022-10-13T23:14:47.260Z,10.8
2022-10-13T23:16:49.260Z,10.8
2022-10-13T23:18:51.315Z,10.8
2022-10-13T23:20:56.872Z,10.8
2022-10-13T23:22:55.314Z,10.7
2022-10-13T23:24:57.347Z,10.7
2022-10-13T23:27:02.446Z,10.7
2022-10-13T23:29:04.450Z,10.7
2022-10-13T23:31:06.479Z,10.8
2022-10-13T23:33:08.505Z,10.7
2022-10-13T23:35:10.534Z,10.7
2022-10-13T23:37:12.556Z,10.7
2022-10-13T23:39:14.586Z,10.7
2022-10-13T23:41:19.680Z,10.7
2022-10-13T23:43:21.747Z,10.7
2022-10-13T23:45:23.742Z,10.7
2022-10-13T23:47:25.769Z,10.7
2022-10-13T23:51:29.821Z,10.7
2022-10-13T23:57:38.978Z,10.5
2022-10-13T23:59:40.980Z,10.4
